Time;durP1;ratioP1;P1;durP2;ratioP2;P2;SDS_P1;SDS_P2;PMS_P1;PMS_P2;Temp;Humidity;BMP_temperature;BMP_pressure;BME280_temperature;BME280_humidity;BME280_pressure;Samples;Min_cycle;Max_cycle;Signal;HPM_P1;HPM_P2
2022/09/08 00:00:22;;;;;;;3.70;1.50;;;;;;;10.24;89.98;99241.66;4968215;28;20038;-46
2022/09/08 00:02:47;;;;;;;2.75;1.80;;;;;;;10.23;89.88;99242.56;4968866;28;20137;-46
2022/09/08 00:05:15;;;;;;;1.67;1.33;;;;;;;10.22;89.15;99242.59;4968475;28;20091;-45
2022/09/08 00:07:42;;;;;;;2.40;1.65;;;;;;;10.23;89.52;99249.50;4950698;28;20481;-44
2022/09/08 00:10:08;;;;;;;1.88;1.48;;;;;;;10.20;89.17;99243.50;4971661;28;20035;-47
2022/09/08 00:12:39;;;;;;;2.00;1.40;;;;;;;10.19;89.16;99251.38;4971682;28;20046;-45
2022/09/08 00:15:05;;;;;;;1.98;1.60;;;;;;;10.20;88.71;99256.50;4972959;28;20042;-45
2022/09/08 00:17:31;;;;;;;2.05;1.52;;;;;;;10.21;88.87;99254.75;4971715;28;20137;-44
2022/09/08 00:19:57;;;;;;;3.67;1.50;;;;;;;10.20;88.75;99246.09;4969842;28;20046;-47
2022/09/08 00:22:24;;;;;;;5.22;1.55;;;;;;;10.17;88.28;99242.81;4972516;28;20915;-45
2022/09/08 00:24:49;;;;;;;2.00;1.30;;;;;;;10.22;88.59;99253.00;4971953;28;20085;-47
2022/09/08 00:27:15;;;;;;;1.50;1.40;;;;;;;10.22;88.25;99253.00;4971817;28;20546;-45
2022/09/08 00:29:41;;;;;;;2.72;1.70;;;;;;;10.19;88.17;99247.03;4967941;28;20133;-43
2022/09/08 00:32:07;;;;;;;2.10;1.55;;;;;;;10.22;87.95;99258.19;4972901;28;20137;-44
2022/09/08 00:34:34;;;;;;;2.38;1.40;;;;;;;10.19;87.79;99249.63;4969633;28;20039;-50
2022/09/08 00:37:00;;;;;;;1.80;1.38;;;;;;;10.19;88.05;99254.00;4970551;28;20047;-45
2022/09/08 00:39:26;;;;;;;1.67;1.27;;;;;;;10.21;87.58;99259.94;4970566;28;20046;-50
2022/09/08 00:41:52;;;;;;;1.88;1.50;;;;;;;10.23;87.69;99254.69;4968728;28;20065;-48
2022/09/08 00:44:36;;;;;;;1.60;1.20;;;;;;;10.24;87.30;99259.84;4969295;28;20129;-47
2022/09/08 00:47:03;;;;;;;1.63;1.25;;;;;;;10.25;87.37;99264.13;4971323;28;20077;-46
2022/09/08 00:49:29;;;;;;;2.42;1.33;;;;;;;10.19;87.34;99260.03;4969917;28;20070;-50
2022/09/08 00:51:57;;;;;;;1.88;1.40;;;;;;;10.26;87.11;99272.78;4970112;28;20078;-45
2022/09/08 00:54:25;;;;;;;1.55;1.20;;;;;;;10.24;87.22;99266.78;4968315;28;20039;-47
2022/09/08 00:56:51;;;;;;;1.45;1.23;;;;;;;10.24;87.33;99269.38;4967804;28;20118;-46
2022/09/08 00:59:20;;;;;;;2.50;1.42;;;;;;;10.23;86.76;99267.69;4970407;28;20129;-46
2022/09/08 01:01:46;;;;;;;1.85;1.30;;;;;;;9.94;86.80;99225.50;4967257;28;20093;-46
2022/09/08 01:04:12;;;;;;;1.40;1.30;;;;;;;10.22;86.67;99263.41;4970189;28;20073;-45
2022/09/08 01:12:53;;;;;;;2.22;1.70;;;;;;;10.23;86.53;99276.34;4959270;28;20121;-48
2022/09/08 01:15:22;;;;;;;3.58;1.80;;;;;;;10.19;86.05;99267.81;4969708;28;20043;-48
2022/09/08 01:17:52;;;;;;;2.30;1.65;;;;;;;10.11;85.98;99256.84;4970381;28;20085;-45
2022/09/08 01:20:24;;;;;;;3.30;2.10;;;;;;;10.23;85.84;99281.53;4967224;28;20171;-44
2022/09/08 01:23:18;;;;;;;2.75;1.98;;;;;;;10.25;85.19;99277.13;4950488;28;20043;-47
2022/09/08 01:26:06;;;;;;;3.58;2.05;;;;;;;10.26;85.10;99275.38;4958606;28;20057;-47
2022/09/08 01:28:34;;;;;;;4.87;2.43;;;;;;;10.27;85.45;99277.03;4969193;28;20061;-47
2022/09/08 01:31:03;;;;;;;3.75;2.28;;;;;;;10.27;85.00;99279.66;4969386;28;20038;-45
2022/09/08 01:33:29;;;;;;;4.32;2.72;;;;;;;10.27;85.04;99283.09;4951396;28;20043;-45
2022/09/08 01:35:55;;;;;;;4.38;2.67;;;;;;;10.27;84.78;99290.88;4967039;28;20089;-46
2022/09/08 01:38:21;;;;;;;3.53;2.90;;;;;;;10.28;84.92;99284.78;4971853;28;20046;-50
2022/09/08 01:40:47;;;;;;;4.65;3.20;;;;;;;10.27;85.07;99283.09;4965914;28;20063;-46
2022/09/08 01:43:13;;;;;;;3.45;2.95;;;;;;;10.15;85.20;99262.78;4971871;28;20576;-46
2022/09/08 01:45:40;;;;;;;5.32;3.08;;;;;;;10.24;84.96;99279.78;4969043;28;20499;-47
2022/09/08 01:48:07;;;;;;;4.97;2.90;;;;;;;10.28;84.64;99283.94;4970252;28;20044;-48
2022/09/08 01:50:34;;;;;;;4.97;3.05;;;;;;;10.28;84.53;99283.94;4968526;28;20434;-44
2022/09/08 01:53:00;;;;;;;4.75;3.13;;;;;;;10.22;84.70;99278.97;4969783;28;20125;-46
2022/09/08 01:55:25;;;;;;;3.53;2.78;;;;;;;10.26;84.77;99284.00;4970209;28;20127;-46
2022/09/08 01:57:51;;;;;;;4.50;3.30;;;;;;;10.25;83.94;99287.53;4969965;28;20050;-50
2022/09/08 02:00:17;;;;;;;6.13;3.33;;;;;;;10.25;84.16;99290.13;4969818;28;20054;-48
2022/09/08 02:02:43;;;;;;;4.68;3.28;;;;;;;10.01;83.96;99250.31;4969119;28;20039;-47
2022/09/08 02:05:09;;;;;;;4.75;3.47;;;;;;;10.04;84.12;99254.56;4968389;28;20545;-45
2022/09/08 02:07:36;;;;;;;4.75;3.70;;;;;;;10.24;83.99;99292.78;4968403;28;20113;-45
2022/09/08 02:10:04;;;;;;;5.18;3.00;;;;;;;10.22;83.82;99290.22;4968552;28;20035;-47
2022/09/08 02:12:31;;;;;;;5.38;3.53;;;;;;;9.96;83.90;99248.78;4969917;28;20121;-46
2022/09/08 02:14:57;;;;;;;8.07;3.80;;;;;;;10.21;83.48;99296.31;4971006;28;20430;-47
2022/09/08 02:17:22;;;;;;;4.70;3.10;;;;;;;10.22;83.39;99303.22;4968168;28;20143;-44
2022/09/08 02:19:48;;;;;;;5.25;3.33;;;;;;;10.24;83.67;99304.00;4968361;28;20075;-43
2022/09/08 02:22:14;;;;;;;4.47;3.28;;;;;;;10.20;83.14;99302.44;4969391;28;20140;-46
2022/09/08 02:24:41;;;;;;;3.72;2.65;;;;;;;10.24;83.08;99297.97;4970100;28;21548;-44
2022/09/08 02:27:08;;;;;;;4.43;2.90;;;;;;;10.24;82.95;99304.00;4968148;28;20042;-43
2022/09/08 02:29:33;;;;;;;3.85;2.63;;;;;;;9.95;82.92;99258.34;4969301;28;20415;-47
2022/09/08 02:32:00;;;;;;;2.65;2.40;;;;;;;10.10;82.78;99288.09;4969515;28;20042;-49
2022/09/08 02:34:25;;;;;;;4.55;2.47;;;;;;;10.25;83.04;99308.31;4970327;28;20515;-45
2022/09/08 02:36:51;;;;;;;2.88;2.20;;;;;;;10.25;82.32;99310.91;4969296;28;20050;-44
2022/09/08 02:39:19;;;;;;;6.28;2.80;;;;;;;10.25;82.64;99310.06;4970558;28;20046;-45
2022/09/08 02:41:45;;;;;;;3.17;2.83;;;;;;;10.23;82.36;99309.25;4968246;28;20066;-47
2022/09/08 02:44:14;;;;;;;3.05;2.60;;;;;;;10.24;82.83;99313.56;4968958;28;20035;-48
2022/09/08 02:46:41;;;;;;;4.72;3.10;;;;;;;10.19;82.58;99308.53;4968412;28;20071;-46
2022/09/08 02:49:10;;;;;;;4.80;2.63;;;;;;;10.17;82.99;99312.94;4954865;28;20425;-47
2022/09/08 02:51:36;;;;;;;3.92;2.72;;;;;;;10.13;83.59;99321.72;4964683;28;20426;-45
2022/09/08 02:54:02;;;;;;;3.45;2.67;;;;;;;10.10;83.69;99327.88;4969458;28;20046;-45
2022/09/08 02:56:28;;;;;;;3.60;2.97;;;;;;;10.05;84.00;99322.00;4970089;28;20043;-44
2022/09/08 02:58:54;;;;;;;4.60;2.53;;;;;;;10.06;84.18;99328.06;4966647;28;20124;-48
2022/09/08 03:01:21;;;;;;;4.00;2.85;;;;;;;9.88;83.87;99303.63;4970081;28;20115;-46
2022/09/08 03:03:47;;;;;;;4.55;3.05;;;;;;;10.07;84.70;99329.75;4967638;28;20516;-47
2022/09/08 03:06:15;;;;;;;5.68;3.20;;;;;;;10.01;84.59;99330.81;4968390;28;20700;-48
2022/09/08 03:08:41;;;;;;;3.42;2.60;;;;;;;10.07;84.50;99337.53;4965490;28;20054;-49
2022/09/08 03:11:08;;;;;;;4.90;2.60;;;;;;;9.90;83.92;99309.59;4969051;28;20154;-47
2022/09/08 03:13:35;;;;;;;3.00;2.70;;;;;;;10.09;83.97;99333.16;4967019;28;20134;-44
2022/09/08 03:16:02;;;;;;;4.80;2.80;;;;;;;10.08;84.55;99345.28;4969110;28;20039;-43
2022/09/08 03:18:28;;;;;;;4.13;2.80;;;;;;;10.10;84.24;99348.66;4967132;28;20030;-45
2022/09/08 03:21:03;;;;;;;11.70;5.32;;;;;;;10.11;83.75;99339.09;4969721;28;20045;-49
2022/09/08 03:23:31;;;;;;;4.28;2.78;;;;;;;10.13;83.66;99345.94;4968455;28;20062;-46
2022/09/08 03:26:01;;;;;;;3.03;2.40;;;;;;;10.14;83.91;99355.44;4968466;28;20427;-48
2022/09/08 03:28:27;;;;;;;3.65;2.70;;;;;;;10.13;83.33;99345.09;4965980;28;20050;-46
2022/09/08 03:30:53;;;;;;;3.58;2.47;;;;;;;10.16;83.42;99353.66;4969756;28;20043;-49
2022/09/08 03:33:19;;;;;;;3.05;2.45;;;;;;;10.20;83.48;99359.59;4968544;28;20133;-47
2022/09/08 03:35:47;;;;;;;3.33;2.70;;;;;;;10.19;83.22;99355.31;4967961;28;20081;-49
2022/09/08 03:38:14;;;;;;;3.58;2.55;;;;;;;10.20;83.25;99355.22;4967336;28;20039;-45
2022/09/08 03:40:41;;;;;;;3.88;3.08;;;;;;;10.22;82.89;99359.50;4967887;28;20061;-47
2022/09/08 03:43:08;;;;;;;3.42;2.72;;;;;;;10.24;82.77;99363.75;4968085;28;20395;-43
2022/09/08 03:45:34;;;;;;;4.30;3.20;;;;;;;10.16;82.69;99350.19;4971459;28;20046;-45
2022/09/08 03:48:00;;;;;;;3.30;2.72;;;;;;;10.13;82.14;99350.31;4972441;28;20133;-44
2022/09/08 03:50:25;;;;;;;3.40;2.90;;;;;;;10.19;82.27;99356.16;4971018;28;20065;-44
2022/09/08 03:52:51;;;;;;;4.05;2.72;;;;;;;10.27;82.40;99370.56;4972023;28;20054;-47
2022/09/08 03:55:18;;;;;;;3.47;2.85;;;;;;;10.32;81.67;99379.03;4972207;28;20396;-46
2022/09/08 03:57:44;;;;;;;4.43;3.20;;;;;;;10.33;82.13;99373.78;4971289;28;20047;-48
2022/09/08 04:00:12;;;;;;;4.70;3.20;;;;;;;10.39;81.64;99386.56;4971085;28;20137;-45
2022/09/08 04:02:38;;;;;;;4.55;2.80;;;;;;;10.41;81.25;99379.56;4973376;28;20047;-51
2022/09/08 04:05:04;;;;;;;3.67;2.83;;;;;;;10.30;81.15;99367.88;4970721;28;20039;-48
2022/09/08 04:07:31;;;;;;;3.67;2.83;;;;;;;10.45;80.87;99391.53;4970880;28;20054;-48
2022/09/08 04:09:57;;;;;;;3.80;2.85;;;;;;;10.49;80.75;99394.84;4951234;28;20129;-47
2022/09/08 04:12:24;;;;;;;5.28;3.03;;;;;;;10.55;80.89;99398.06;4965330;28;20138;-46
2022/09/08 04:14:50;;;;;;;5.30;3.10;;;;;;;10.60;80.65;99398.72;4970670;28;20177;-50
2022/09/08 04:17:17;;;;;;;6.13;3.10;;;;;;;10.63;79.88;99393.41;4966449;28;20150;-45
2022/09/08 04:19:43;;;;;;;3.97;2.78;;;;;;;10.68;80.21;99397.59;4962976;28;20078;-45
2022/09/08 04:22:11;;;;;;;3.55;2.65;;;;;;;10.56;79.47;99368.56;4972500;28;20057;-44
2022/09/08 04:24:36;;;;;;;5.20;3.60;;;;;;;10.74;79.82;99392.13;4970711;28;20494;-47
2022/09/08 04:27:02;;;;;;;5.68;3.35;;;;;;;10.79;79.21;99395.38;4972831;28;20089;-51
2022/09/08 04:29:28;;;;;;;5.70;3.22;;;;;;;10.84;79.32;99398.66;4971994;28;20425;-46
2022/09/08 04:31:54;;;;;;;6.95;3.70;;;;;;;10.86;79.31;99396.84;4971395;28;20042;-47
2022/09/08 04:34:20;;;;;;;5.95;3.53;;;;;;;10.92;78.74;99402.66;4972387;28;20042;-45
2022/09/08 04:36:46;;;;;;;4.45;2.88;;;;;;;10.97;78.10;99397.28;4972645;28;20061;-46
2022/09/08 04:39:12;;;;;;;7.43;3.28;;;;;;;11.05;77.98;99395.19;4969920;28;20534;-47
2022/09/08 04:41:39;;;;;;;5.68;3.28;;;;;;;11.06;77.19;99407.28;4972130;28;20063;-46
2022/09/08 04:44:06;;;;;;;3.97;2.92;;;;;;;10.97;77.09;99399.88;4964823;28;20038;-49
2022/09/08 04:46:33;;;;;;;5.00;2.58;;;;;;;10.90;76.86;99404.47;4972213;28;20081;-46
2022/09/08 04:48:59;;;;;;;5.60;3.55;;;;;;;10.85;77.11;99403.81;4970477;28;20062;-47
2022/09/08 04:51:26;;;;;;;5.45;2.63;;;;;;;10.84;76.30;99401.25;4969791;28;20057;-46
2022/09/08 04:53:52;;;;;;;5.93;2.80;;;;;;;10.91;75.80;99408.75;4970182;28;20094;-49
2022/09/08 04:56:20;;;;;;;6.25;3.05;;;;;;;11.02;75.02;99408.34;4971081;28;20035;-44
2022/09/08 04:58:46;;;;;;;5.72;3.08;;;;;;;11.09;75.85;99414.13;4967756;28;20046;-44
2022/09/08 05:01:14;;;;;;;8.35;4.05;;;;;;;11.30;74.88;99421.91;4969713;28;20064;-46
2022/09/08 05:03:40;;;;;;;4.80;3.25;;;;;;;11.62;73.65;99420.53;4971677;28;20038;-45
2022/09/08 05:06:16;;;;;;;10.18;3.20;;;;;;;11.86;72.92;99423.88;4971880;28;20140;-46
2022/09/08 05:08:43;;;;;;;5.80;3.55;;;;;;;11.93;72.18;99427.06;4971491;28;20045;-46
2022/09/08 05:11:09;;;;;;;5.82;3.10;;;;;;;11.87;71.75;99418.63;4971519;28;20089;-47
2022/09/08 05:13:35;;;;;;;7.43;3.47;;;;;;;11.87;71.30;99428.19;4969937;28;20050;-49
2022/09/08 05:16:10;;;;;;;9.43;4.45;;;;;;;11.87;70.91;99428.19;4971842;28;20073;-44
2022/09/08 05:18:36;;;;;;;6.20;3.75;;;;;;;11.87;70.76;99426.44;4970895;28;20042;-45
2022/09/08 05:21:03;;;;;;;6.95;3.80;;;;;;;11.86;70.65;99426.50;4971084;28;20086;-46
2022/09/08 05:23:29;;;;;;;7.53;2.85;;;;;;;11.81;70.77;99400.66;4952313;28;20043;-48
2022/09/08 05:26:06;;;;;;;11.95;4.03;;;;;;;12.01;69.80;99428.41;4971012;28;20039;-47
2022/09/08 05:28:37;;;;;;;9.27;3.30;;;;;;;11.83;69.83;99406.63;4970870;28;20050;-46
2022/09/08 05:31:03;;;;;;;6.35;2.47;;;;;;;11.91;69.21;99426.28;4971672;28;20078;-44
2022/09/08 05:33:30;;;;;;;4.22;2.38;;;;;;;11.87;68.92;99433.41;4971106;28;20043;-46
2022/09/08 05:35:56;;;;;;;5.05;2.20;;;;;;;11.91;68.97;99429.75;4971576;28;20428;-44
2022/09/08 05:38:22;;;;;;;7.55;3.35;;;;;;;12.10;68.06;99442.78;4970102;28;20039;-45
2022/09/08 05:40:47;;;;;;;4.97;2.53;;;;;;;12.34;67.68;99436.50;4970702;28;20537;-48
2022/09/08 05:43:17;;;;;;;5.75;2.90;;;;;;;12.58;67.14;99437.13;4970691;28;20046;-47
2022/09/08 05:45:47;;;;;;;4.15;2.45;;;;;;;12.71;66.18;99440.88;4970771;28;20050;-47
2022/09/08 05:48:14;;;;;;;3.92;2.90;;;;;;;12.77;65.85;99442.34;4969152;28;20525;-44
2022/09/08 05:50:46;;;;;;;6.63;3.08;;;;;;;12.72;65.48;99439.91;4971042;28;20121;-46
2022/09/08 05:53:13;;;;;;;8.88;3.17;;;;;;;12.60;65.51;99448.34;4970658;28;20756;-44
2022/09/08 05:55:40;;;;;;;5.05;2.38;;;;;;;12.41;65.61;99444.88;4970469;28;20034;-47
2022/09/08 05:58:12;;;;;;;5.15;2.50;;;;;;;12.25;66.23;99455.13;4970461;28;20046;-48
2022/09/08 06:00:38;;;;;;;6.15;2.33;;;;;;;12.10;66.11;99446.25;4969360;28;20436;-48
2022/09/08 06:03:04;;;;;;;6.65;2.78;;;;;;;12.05;66.23;99453.44;4951236;28;20427;-47
2022/09/08 06:05:30;;;;;;;8.52;3.13;;;;;;;12.01;66.52;99446.66;4968306;28;20042;-54
2022/09/08 06:07:56;;;;;;;6.70;2.63;;;;;;;11.90;66.59;99435.84;4957602;28;20113;-45
2022/09/08 06:10:22;;;;;;;10.95;3.20;;;;;;;11.86;66.85;99436.91;4968693;28;20050;-46
2022/09/08 06:12:48;;;;;;;4.50;2.50;;;;;;;12.00;67.27;99452.78;4970591;28;20518;-48
2022/09/08 06:15:13;;;;;;;4.55;2.67;;;;;;;12.03;67.16;99449.22;4967863;28;20030;-44
2022/09/08 06:17:39;;;;;;;11.82;4.32;;;;;;;12.26;67.45;99462.03;4969406;28;20051;-45
2022/09/08 06:20:06;;;;;;;9.25;3.70;;;;;;;12.38;67.26;99443.25;4952236;28;20039;-47
2022/09/08 06:22:33;;;;;;;2.67;2.22;;;;;;;12.75;66.73;99458.06;4966538;28;20046;-47
2022/09/08 06:25:00;;;;;;;3.67;2.03;;;;;;;12.86;66.20;99458.41;4966819;28;20691;-47
2022/09/08 06:27:50;;;;;;;4.15;2.35;;;;;;;13.04;65.26;99464.50;4967857;28;20046;-44
2022/09/08 06:30:18;;;;;;;6.03;3.15;;;;;;;13.22;64.29;99465.41;4968754;28;20039;-46
2022/09/08 06:32:48;;;;;;;5.28;2.50;;;;;;;13.17;64.30;99470.03;4968999;28;20046;-47
2022/09/08 06:35:35;;;;;;;10.38;3.75;;;;;;;13.11;63.78;99469.41;4967603;28;20067;-45
2022/09/08 06:38:34;;;;;;;4.93;2.25;;;;;;;12.91;63.88;99474.69;4973380;28;21297;-48
2022/09/08 06:41:05;;;;;;;;;;;;;;;12.72;64.31;99481.66;4965282;28;20051;-51
2022/09/08 06:43:38;;;;;;;5.00;2.53;;;;;;;12.56;65.06;99475.47;4966586;28;19918;-45
2022/09/08 06:46:13;;;;;;;6.93;3.35;;;;;;;12.39;65.28;99485.81;4964609;28;20035;-46
2022/09/08 06:48:39;;;;;;;4.80;2.40;;;;;;;12.32;66.11;99495.66;4966353;28;20054;-45
2022/09/08 06:51:36;;;;;;;6.38;3.05;;;;;;;12.23;66.84;99498.69;4965699;28;20042;-47
2022/09/08 06:54:26;;;;;;;4.55;2.20;;;;;;;12.15;67.46;99506.81;4966958;28;20051;-49
2022/09/08 06:57:14;;;;;;;4.43;2.60;;;;;;;12.12;68.17;99503.53;4962528;28;20035;-50
2022/09/08 07:00:18;;;;;;;4.07;2.03;;;;;;;12.17;68.05;99510.22;4968975;28;20089;-44
2022/09/08 07:03:08;;;;;;;5.43;3.08;;;;;;;12.20;68.33;99509.22;4963758;28;20126;-50
2022/09/08 07:05:52;;;;;;;3.72;2.33;;;;;;;12.29;68.02;99514.91;4972789;28;20051;-53
2022/09/08 07:08:30;;;;;;;9.82;5.75;;;;;;;12.20;67.78;99511.84;4966589;28;20038;-50
2022/09/08 07:11:00;;;;;;;6.40;3.20;;;;;;;12.12;68.19;99508.72;4963944;28;20053;-47
2022/09/08 07:13:55;;;;;;;6.43;2.83;;;;;;;11.80;68.54;99487.50;4967629;28;21188;-49
2022/09/08 07:16:29;;;;;;;9.18;3.10;;;;;;;11.89;69.45;99522.72;4959634;28;20054;-48
2022/09/08 07:19:01;;;;;;;6.95;3.15;;;;;;;11.78;69.75;99522.31;4967497;28;20163;-53
2022/09/08 07:21:41;;;;;;;7.03;5.05;;;;;;;11.77;69.84;99525.88;4967809;28;20074;-46
2022/09/08 07:24:11;;;;;;;16.02;7.45;;;;;;;11.67;70.22;99504.50;4981747;28;20093;-44
2022/09/08 07:26:44;;;;;;;3.50;2.47;;;;;;;11.85;70.66;99532.44;4946385;28;20038;-44
2022/09/08 07:29:23;;;;;;;6.88;3.00;;;;;;;11.66;70.91;99510.66;4965398;28;20121;-46
2022/09/08 07:31:51;;;;;;;6.28;3.70;;;;;;;11.53;71.58;99511.22;4946076;28;20133;-44
2022/09/08 07:34:24;;;;;;;3.40;2.67;;;;;;;11.60;72.43;99543.91;4965215;28;20126;-49
2022/09/08 07:37:08;;;;;;;6.40;3.30;;;;;;;11.63;72.41;99541.16;4968445;28;20074;-44
2022/09/08 07:39:39;;;;;;;6.32;3.72;;;;;;;11.72;72.41;99539.03;4979332;28;20035;-45
2022/09/08 07:42:08;;;;;;;7.22;2.90;;;;;;;11.91;72.11;99536.56;4965230;28;20063;-48
2022/09/08 07:44:34;;;;;;;6.00;2.63;;;;;;;12.12;71.69;99538.25;4966570;28;20109;-46
2022/09/08 07:47:19;;;;;;;5.20;2.85;;;;;;;12.37;71.19;99545.00;4968845;28;20043;-46
2022/09/08 07:50:12;;;;;;;6.82;3.22;;;;;;;12.57;70.85;99540.59;4965746;28;20090;-43
2022/09/08 07:52:53;;;;;;;7.38;4.47;;;;;;;13.16;69.65;99547.47;4963483;28;20141;-45
2022/09/08 07:55:40;;;;;;;8.63;5.20;;;;;;;13.41;68.22;99545.38;4965574;28;20503;-47
2022/09/08 07:58:05;;;;;;;6.80;4.07;;;;;;;13.40;67.79;99548.06;4966513;28;20142;-44
2022/09/08 08:00:32;;;;;;;7.50;2.78;;;;;;;13.30;67.75;99550.28;4965235;28;20137;-45
2022/09/08 08:03:13;;;;;;;3.95;2.50;;;;;;;13.25;66.86;99556.63;4969237;28;20049;-45
2022/09/08 08:05:52;;;;;;;7.65;2.90;;;;;;;13.17;66.50;99545.72;4967659;28;20046;-47
2022/09/08 08:08:45;;;;;;;6.72;2.58;;;;;;;13.11;66.17;99557.25;4944950;28;20133;-44
2022/09/08 08:11:22;;;;;;;10.45;5.50;;;;;;;13.15;65.58;99553.59;4967538;28;20043;-46
2022/09/08 08:14:03;;;;;;;7.40;4.85;;;;;;;13.51;65.06;99559.69;4955086;28;20056;-48
2022/09/08 08:16:54;;;;;;;5.57;3.50;;;;;;;14.35;63.76;99545.88;4950160;28;20130;-45
2022/09/08 08:19:46;;;;;;;3.53;2.60;;;;;;;15.87;59.69;99552.38;4963190;28;20096;-50
2022/09/08 08:22:27;;;;;;;4.82;2.35;;;;;;;16.47;58.33;99527.75;4966508;28;20058;-49
2022/09/08 08:25:12;;;;;;;6.55;2.47;;;;;;;16.66;56.71;99556.38;4966629;28;20049;-48
2022/09/08 08:27:44;;;;;;;6.00;4.35;;;;;;;16.08;57.43;99548.50;4949110;28;20058;-44
2022/09/08 08:30:17;;;;;;;3.33;2.40;;;;;;;15.51;57.52;99552.69;4967878;28;20094;-45
2022/09/08 08:33:13;;;;;;;3.85;2.38;;;;;;;15.05;57.70;99546.53;4969403;28;20533;-47
2022/09/08 08:35:44;;;;;;;9.50;2.20;;;;;;;14.75;58.17;99551.66;4968641;28;20134;-46
2022/09/08 08:38:24;;;;;;;11.18;2.70;;;;;;;14.34;58.13;99548.59;4969211;28;20109;-45
2022/09/08 08:40:58;;;;;;;7.22;1.73;;;;;;;13.94;58.75;99563.66;4969503;28;20064;-47
2022/09/08 08:43:42;;;;;;;4.05;1.77;;;;;;;13.57;59.68;99561.16;4969369;28;20046;-49
2022/09/08 08:46:14;;;;;;;4.28;1.67;;;;;;;13.28;60.27;99565.19;4970827;28;20046;-52
2022/09/08 08:48:53;;;;;;;4.55;1.52;;;;;;;13.25;60.76;99567.06;4972050;28;20042;-46
2022/09/08 08:51:24;;;;;;;5.72;1.90;;;;;;;13.41;60.75;99565.44;4955629;28;20043;-44
2022/09/08 08:53:55;;;;;;;4.20;1.92;;;;;;;13.62;60.46;99574.84;4972536;28;20103;-47
2022/09/08 08:56:45;;;;;;;3.28;1.63;;;;;;;13.98;59.49;99574.81;4955189;28;20035;-45
2022/09/08 08:59:41;;;;;;;7.43;2.55;;;;;;;13.98;58.76;99574.81;4971248;28;20047;-50
2022/09/08 09:02:10;;;;;;;4.40;2.00;;;;;;;13.84;58.91;99577.25;4951706;28;20043;-50
2022/09/08 09:04:41;;;;;;;2.47;1.50;;;;;;;13.77;58.85;99581.94;4952890;28;20042;-46
2022/09/08 09:07:10;;;;;;;1.70;1.23;;;;;;;13.84;58.64;99598.19;4970272;28;20389;-46
2022/09/08 09:09:38;;;;;;;3.65;1.70;;;;;;;13.97;58.56;99592.25;4972283;28;20426;-45
2022/09/08 09:12:07;;;;;;;4.50;1.70;;;;;;;14.08;58.28;99580.44;4972129;28;20042;-44
2022/09/08 09:14:39;;;;;;;2.17;1.00;;;;;;;14.18;58.02;99585.13;4970745;28;20077;-46
2022/09/08 09:17:23;;;;;;;6.25;1.20;;;;;;;14.19;57.84;99593.78;4972155;28;20157;-46
2022/09/08 09:20:13;;;;;;;2.55;1.40;;;;;;;14.11;58.09;99590.72;4972023;28;20045;-43
2022/09/08 09:23:05;;;;;;;6.93;2.05;;;;;;;13.76;58.37;99609.00;4954164;28;20352;-46
2022/09/08 09:25:34;;;;;;;1.48;0.88;;;;;;;13.43;58.52;99603.63;4971906;28;20046;-45
2022/09/08 09:28:06;;;;;;;4.57;1.00;;;;;;;13.35;58.93;99610.09;4971797;28;20050;-46
2022/09/08 09:30:54;;;;;;;5.25;2.05;;;;;;;13.32;59.10;99618.09;4971602;28;20038;-44
2022/09/08 09:33:39;;;;;;;3.55;1.50;;;;;;;13.30;59.46;99619.91;4954227;28;20106;-46
2022/09/08 09:36:08;;;;;;;5.13;1.40;;;;;;;13.37;59.38;99623.97;4970141;28;20557;-45
2022/09/08 09:39:02;;;;;;;4.03;1.60;;;;;;;13.18;59.48;99597.00;4971219;28;20046;-46
2022/09/08 09:41:31;;;;;;;4.88;1.60;;;;;;;13.15;59.75;99631.94;4965128;28;20059;-45
2022/09/08 09:44:13;;;;;;;3.60;2.38;;;;;;;13.00;59.67;99627.38;4953295;28;20248;-44
2022/09/08 09:47:17;;;;;;;2.13;1.40;;;;;;;12.99;59.86;99634.34;4968371;28;20050;-43
2022/09/08 09:49:57;;;;;;;3.72;1.30;;;;;;;13.13;59.46;99628.56;4969945;28;20138;-44
2022/09/08 09:52:44;;;;;;;3.15;1.52;;;;;;;13.43;58.95;99634.13;4969959;28;20046;-45
2022/09/08 09:55:22;;;;;;;1.88;1.35;;;;;;;14.02;57.90;99636.50;4971096;28;20483;-48
2022/09/08 09:58:30;;;;;;;5.18;1.90;;;;;;;15.68;55.06;99632.09;4970922;28;20047;-46
2022/09/08 10:01:26;;;;;;;3.83;1.60;;;;;;;17.22;51.58;99641.31;4950930;28;20042;-45
2022/09/08 10:04:01;;;;;;;4.15;2.20;;;;;;;17.39;50.72;99641.13;4951817;28;20597;-48
2022/09/08 10:06:44;;;;;;;7.25;1.58;;;;;;;16.84;50.87;99633.19;4965597;28;20797;-47
2022/09/08 10:09:34;;;;;;;6.57;2.50;;;;;;;16.04;52.07;99636.16;4969552;28;20093;-45
2022/09/08 10:12:18;;;;;;;1.92;1.33;;;;;;;15.29;53.32;99647.31;4951608;28;20046;-47
2022/09/08 10:14:50;;;;;;;3.42;2.55;;;;;;;14.75;54.22;99651.97;4950116;29;20074;-49
2022/09/08 10:17:34;;;;;;;15.10;9.35;;;;;;;14.27;55.35;99644.81;4960060;28;20122;-49
2022/09/08 10:20:19;;;;;;;3.92;2.80;;;;;;;13.80;56.72;99670.66;4968977;28;20054;-47
2022/09/08 10:23:09;;;;;;;9.35;5.75;;;;;;;13.55;57.29;99662.28;4951148;28;20031;-44
2022/09/08 10:25:59;;;;;;;32.25;14.20;;;;;;;13.37;58.21;99666.59;4951427;28;20047;-45
2022/09/08 10:28:31;;;;;;;2.47;1.52;;;;;;;13.30;58.59;99664.31;4969756;28;20074;-46
2022/09/08 10:31:22;;;;;;;2.65;1.90;;;;;;;13.24;58.81;99667.22;4953030;28;20558;-47
2022/09/08 10:34:19;;;;;;;5.72;1.92;;;;;;;13.27;59.04;99669.69;4970187;28;20109;-47
2022/09/08 10:37:02;;;;;;;4.05;2.40;;;;;;;13.43;58.70;99678.50;4968574;28;20051;-47
2022/09/08 10:39:31;;;;;;;4.90;1.77;;;;;;;13.75;58.33;99670.03;4970004;28;20035;-48
2022/09/08 10:42:28;;;;;;;3.83;1.58;;;;;;;14.41;57.20;99668.53;4966433;28;20061;-44
2022/09/08 10:45:18;;;;;;;2.67;1.38;;;;;;;15.25;54.95;99669.38;4952770;28;20047;-48
2022/09/08 10:48:27;;;;;;;2.45;1.90;;;;;;;15.33;54.22;99669.84;4950833;28;20051;-46
2022/09/08 10:50:54;;;;;;;5.65;1.63;;;;;;;15.30;54.03;99663.91;4937570;28;20053;-45
2022/09/08 10:53:33;;;;;;;7.50;3.03;;;;;;;15.31;54.00;99681.31;4968227;28;20073;-45
2022/09/08 10:56:08;;;;;;;;;;;;;;;15.61;53.11;99667.41;4970467;28;20035;-46
2022/09/08 10:58:52;;;;;;;4.68;2.13;;;;;;;16.18;51.88;99685.19;4969823;28;19977;-50
2022/09/08 11:01:38;;;;;;;3.13;1.50;;;;;;;16.29;51.34;99678.41;4950535;28;20046;-48
2022/09/08 11:04:08;;;;;;;4.65;2.72;;;;;;;15.89;51.64;99681.63;4967999;28;20052;-45
2022/09/08 11:06:49;;;;;;;1.42;1.20;;;;;;;15.30;52.34;99690.94;4968962;28;20047;-51
2022/09/08 11:09:24;;;;;;;5.30;3.22;;;;;;;14.68;53.51;99694.22;4967559;28;20057;-52
2022/09/08 11:12:11;;;;;;;2.47;1.02;;;;;;;14.21;54.48;99701.78;4967790;28;20066;-55
2022/09/08 11:15:11;;;;;;;4.88;2.80;;;;;;;13.68;55.72;99705.19;4968724;28;20093;-53
2022/09/08 11:17:46;;;;;;;4.60;3.40;;;;;;;13.42;56.62;99703.78;4956963;28;20043;-51
2022/09/08 11:20:21;;;;;;;11.45;6.53;;;;;;;13.35;57.29;99710.19;4965987;28;20369;-47
2022/09/08 11:22:56;;;;;;;6.38;4.18;;;;;;;13.34;58.03;99708.53;4968131;28;20042;-49
2022/09/08 11:25:33;;;;;;;2.95;1.40;;;;;;;13.42;58.62;99708.16;4967199;28;20062;-53
2022/09/08 11:28:04;;;;;;;6.25;1.80;;;;;;;13.61;58.42;99700.34;4972571;28;20057;-54
2022/09/08 11:31:00;;;;;;;9.77;4.18;;;;;;;13.87;57.95;99698.16;4968376;28;20039;-49
2022/09/08 11:33:28;;;;;;;2.22;1.20;;;;;;;14.48;56.96;99704.84;4962958;28;20058;-46
2022/09/08 11:36:15;;;;;;;3.15;1.42;;;;;;;14.94;55.50;99703.34;4964748;28;20129;-49
2022/09/08 11:38:46;;;;;;;3.22;2.10;;;;;;;15.14;54.94;99709.25;4966561;28;20116;-50
2022/09/08 11:41:40;;;;;;;4.13;2.42;;;;;;;15.51;53.99;99697.69;4964143;28;20063;-50
2022/09/08 11:44:22;;;;;;;10.90;4.15;;;;;;;15.96;53.07;99673.31;4966409;28;20043;-54
2022/09/08 11:47:14;;;;;;;6.22;3.33;;;;;;;17.15;51.03;99697.84;4966976;28;20065;-51
2022/09/08 11:50:28;;;;;;;4.82;2.78;;;;;;;17.52;50.04;99704.28;4961037;28;20070;-50
2022/09/08 11:53:26;;;;;;;7.38;2.03;;;;;;;17.02;50.40;99702.13;4929636;28;20134;-48
2022/09/08 11:56:04;;;;;;;7.65;3.33;;;;;;;16.74;50.88;99709.03;4954374;28;20613;-45
2022/09/08 11:58:46;;;;;;;7.03;2.50;;;;;;;16.65;50.72;99712.19;4968852;28;20051;-49
2022/09/08 12:01:25;;;;;;;7.85;1.60;;;;;;;16.34;50.79;99681.59;4967435;28;20082;-51
2022/09/08 12:04:09;;;;;;;17.10;7.68;;;;;;;16.42;50.47;99703.03;4954671;28;20054;-49
2022/09/08 12:07:00;;;;;;;1.58;1.13;;;;;;;16.33;50.86;99700.09;4977680;28;20043;-50
2022/09/08 12:09:34;;;;;;;1.23;1.02;;;;;;;15.92;51.21;99711.13;4972682;28;20097;-50